M I D A S
Marine Information and Data Acquisition System
Tripno 1637 of the Zeeleeuw from 2009-01-30 08:06:06 to 2009-01-30 14:33:32
Back to CruiseResearch ActivitiesStationsMapUnderway DataData graphs

EquipmentUnitsComment
TimeDGPSUTC
LatitudeDGPSDM.mWGS84
LongitudeDGPSDM.mWGS84
HeadingGyrodeg 
SOGDGPSknotsSpeed over ground
COGDGPSdegCourse over ground
DepthEcho soundermeters200 kHz
Missing or incorrect values are displayed as -999
Navigation data collected by the RV Zeeleeuw from 2009-01-30 08:08:23 to 2009-01-30 14:40:02
                                                                                    Next 1000 lines
Time Latitude Longitude Heading SOG COG Depth
2009-01-30 08:08:34 51°13.663 2°55.958 115.7 0.9 302 4.9
2009-01-30 08:08:39 51°13.664 2°55.955 115.7 1.2 297 4.7
2009-01-30 08:08:43 51°13.664 2°55.953 115.5 1.5 295 4.7
2009-01-30 08:08:48 51°13.665 2°55.95 114.9 1.6 298 -999
2009-01-30 08:08:54 51°13.667 2°55.946 114.4 1.8 296 -999
2009-01-30 08:08:59 51°13.668 2°55.942 114.4 1.9 297 4.6
2009-01-30 08:09:03 51°13.669 2°55.939 114.4 2 297 -999
2009-01-30 08:09:08 51°13.67 2°55.935 114.9 2.1 301 -999
2009-01-30 08:09:14 51°13.672 2°55.93 115.3 2.2 300 -999
2009-01-30 08:09:19 51°13.674 2°55.926 115.7 2.3 301 -999
2009-01-30 08:09:24 51°13.675 2°55.921 116 2.5 299 -999
2009-01-30 08:09:28 51°13.677 2°55.917 116.2 2.7 302 -999
2009-01-30 08:09:34 51°13.68 2°55.91 116.4 2.9 301 -999
2009-01-30 08:09:39 51°13.682 2°55.904 116.5 3.1 303 -999
2009-01-30 08:09:44 51°13.684 2°55.897 116.6 3.4 301 -999
2009-01-30 08:09:48 51°13.686 2°55.892 116.2 3.5 300 -999
2009-01-30 08:09:54 51°13.689 2°55.883 114.5 3.6 296 -999
2009-01-30 08:09:59 51°13.691 2°55.876 111.6 3.7 295 -999
2009-01-30 08:10:04 51°13.693 2°55.868 108.4 3.6 291 -999
2009-01-30 08:10:08 51°13.694 2°55.862 105.4 3.6 289 -999
2009-01-30 08:10:14 51°13.696 2°55.853 102.7 3.6 286 -999
2009-01-30 08:10:19 51°13.697 2°55.845 100.5 3.6 284 -999
2009-01-30 08:10:23 51°13.698 2°55.839 98.3 3.6 283 -999
2009-01-30 08:10:29 51°13.699 2°55.83 96.3 3.5 281 -999
2009-01-30 08:10:34 51°13.7 2°55.822 94 3.4 279 -999
2009-01-30 08:10:39 51°13.7 2°55.815 91.9 3.3 278 -999
2009-01-30 08:10:43 51°13.7 2°55.81 89.9 3.3 275 -999
2009-01-30 08:10:49 51°13.7 2°55.801 87.9 3.2 274 -999
2009-01-30 08:10:54 51°13.7 2°55.794 85.9 3.2 272 -999
2009-01-30 08:10:59 51°13.7 2°55.787 83.9 3.1 271 -999
2009-01-30 08:11:03 51°13.7 2°55.782 82.1 2.9 270 5.3
2009-01-30 08:11:08 51°13.7 2°55.776 80.6 2.8 270 -999
2009-01-30 08:11:14 51°13.7 2°55.769 78.9 2.7 269 -999
2009-01-30 08:11:19 51°13.7 2°55.764 77.2 2.3 269 -999
2009-01-30 08:11:23 51°13.7 2°55.761 75 1.5 272 -999
2009-01-30 08:11:28 51°13.7 2°55.76 72.2 0.8 295 12.1
2009-01-30 08:11:33 51°13.701 2°55.76 67.9 0.7 357 12
2009-01-30 08:11:38 51°13.703 2°55.761 62.1 1.1 21 12
2009-01-30 08:11:43 51°13.705 2°55.762 54 1.6 23 12.1
2009-01-30 08:11:48 51°13.708 2°55.764 45.3 2 21 12.1
2009-01-30 08:11:53 51°13.711 2°55.765 38.3 2.1 15 11.7
2009-01-30 08:11:58 51°13.714 2°55.766 27.6 1.8 6 11.4
2009-01-30 08:12:03 51°13.715 2°55.766 21 1.2 6 11.3
2009-01-30 08:12:08 51°13.716 2°55.766 16.4 0.7 348 11.3
2009-01-30 08:12:13 51°13.716 2°55.765 11.6 0.2 308 11.3
2009-01-30 08:12:19 51°13.716 2°55.764 8 0.6 209 11.2
2009-01-30 08:12:23 51°13.714 2°55.764 3.4 1 193 11.3
2009-01-30 08:12:28 51°13.713 2°55.763 0.6 1.5 188 11.4
2009-01-30 08:12:33 51°13.71 2°55.763 358.2 1.5 187 11.4
2009-01-30 08:12:39 51°13.708 2°55.763 356 1.2 188 -999
2009-01-30 08:12:43 51°13.708 2°55.762 353.7 0.7 207 -999
2009-01-30 08:12:49 51°13.708 2°55.761 350.7 0.4 304 -999
2009-01-30 08:12:54 51°13.71 2°55.76 345.7 1.1 322 -999
2009-01-30 08:12:59 51°13.711 2°55.758 340.9 1.6 327 -999
2009-01-30 08:13:03 51°13.714 2°55.756 335.4 2.3 325 -999
2009-01-30 08:13:08 51°13.717 2°55.752 329.9 3 325 5.2
2009-01-30 08:13:13 51°13.721 2°55.747 328.2 3.5 323 5.3
2009-01-30 08:13:19 51°13.727 2°55.741 326 3.9 323 10.8
2009-01-30 08:13:23 51°13.731 2°55.736 324.8 4.4 322 10.6
2009-01-30 08:13:28 51°13.736 2°55.73 324 4.7 322 10.2
2009-01-30 08:13:34 51°13.742 2°55.722 323.8 5 322 9.9
2009-01-30 08:13:39 51°13.748 2°55.715 324.2 5.3 323 9.7
2009-01-30 08:13:43 51°13.753 2°55.709 324.8 5.5 323 9.3
2009-01-30 08:13:48 51°13.76 2°55.702 324.8 5.7 324 8.9
2009-01-30 08:13:53 51°13.766 2°55.694 325.1 5.9 324 8.7
2009-01-30 08:13:59 51°13.774 2°55.685 325.7 6 325 8.6
2009-01-30 08:14:03 51°13.78 2°55.679 326.3 6.2 326 8.6
2009-01-30 08:14:08 51°13.788 2°55.672 327 6.3 327 8.5
2009-01-30 08:14:13 51°13.796 2°55.664 327.7 6.4 328 8.5
2009-01-30 08:14:18 51°13.803 2°55.657 329.1 6.5 329 8.5
2009-01-30 08:14:23 51°13.811 2°55.65 330.9 6.6 331 8.5
2009-01-30 08:14:28 51°13.819 2°55.643 331.8 6.7 332 8.5
2009-01-30 08:14:33 51°13.828 2°55.636 332.9 6.8 334 8.5
2009-01-30 08:14:39 51°13.838 2°55.628 334.7 7 335 8.5
2009-01-30 08:14:44 51°13.848 2°55.622 335.8 7.1 335 8.5
2009-01-30 08:14:48 51°13.855 2°55.616 335.8 7.2 334 8.4
2009-01-30 08:14:53 51°13.864 2°55.609 335.6 7.3 335 8.4
2009-01-30 08:14:59 51°13.875 2°55.601 335.7 7.4 334 8.4
2009-01-30 08:15:03 51°13.883 2°55.595 335.8 7.5 335 8.4
2009-01-30 08:15:08 51°13.892 2°55.588 335.6 7.5 334 8.4
2009-01-30 08:15:13 51°13.902 2°55.581 335.6 7.6 334 8.5
2009-01-30 08:15:19 51°13.913 2°55.572 335.6 7.7 334 8.5
2009-01-30 08:15:23 51°13.921 2°55.566 335.6 7.7 334 8.5
2009-01-30 08:15:28 51°13.93 2°55.558 335.4 7.8 333 8.5
2009-01-30 08:15:33 51°13.94 2°55.55 334.9 7.8 334 8.5
2009-01-30 08:15:39 51°13.952 2°55.542 335.4 7.9 335 8.5
2009-01-30 08:15:43 51°13.96 2°55.536 336.3 7.9 335 8.6
2009-01-30 08:15:48 51°13.97 2°55.529 336.8 7.9 336 8.6
2009-01-30 08:15:53 51°13.98 2°55.522 336.9 7.9 336 8.5
2009-01-30 08:15:59 51°13.992 2°55.513 337.1 7.9 336 8.6
2009-01-30 08:16:03 51°14 2°55.507 337.2 7.9 335 8.5
2009-01-30 08:16:08 51°14.01 2°55.5 337 8.1 336 8.6
2009-01-30 08:16:13 51°14.02 2°55.493 337 8.1 336 8.4
2009-01-30 08:16:19 51°14.033 2°55.484 337.7 8.2 336 8.5
2009-01-30 08:16:23 51°14.041 2°55.478 338 8.2 336 8.5
2009-01-30 08:16:28 51°14.052 2°55.47 337.8 8.3 336 8.5
2009-01-30 08:16:33 51°14.062 2°55.463 337.4 8.4 336 8.5
2009-01-30 08:16:38 51°14.073 2°55.455 337.7 8.4 336 8.5
2009-01-30 08:16:43 51°14.083 2°55.448 337.9 8.5 335 8.6
2009-01-30 08:16:48 51°14.094 2°55.44 337.7 8.5 335 8.6
2009-01-30 08:16:53 51°14.105 2°55.432 337.4 8.5 335 8.6
2009-01-30 08:16:58 51°14.116 2°55.424 337 8.5 334 8.5
2009-01-30 08:17:03 51°14.127 2°55.415 336.1 8.5 333 8.6
2009-01-30 08:17:08 51°14.137 2°55.406 334.9 8.5 332 8.5
2009-01-30 08:17:12 51°14.145 2°55.399 334.3 8.6 332 8.5
2009-01-30 08:17:19 51°14.16 2°55.386 333.9 8.6 330 8.5
2009-01-30 08:17:23 51°14.168 2°55.378 332.7 8.6 329 8.5
2009-01-30 08:17:28 51°14.178 2°55.368 331.5 8.6 328 8.5
2009-01-30 08:17:34 51°14.19 2°55.355 330.5 8.7 327 8.5
2009-01-30 08:17:39 51°14.2 2°55.345 328.8 8.7 325 8.6
2009-01-30 08:17:43 51°14.208 2°55.336 327.3 8.8 325 8.6
2009-01-30 08:17:48 51°14.218 2°55.324 326.3 8.8 324 8.6
2009-01-30 08:17:53 51°14.228 2°55.312 325.4 8.9 323 8.6
2009-01-30 08:17:59 51°14.24 2°55.298 324.7 8.9 322 8.6
2009-01-30 08:18:03 51°14.247 2°55.288 323.9 9 320 8.6
2009-01-30 08:18:08 51°14.257 2°55.275 322.7 9 320 8.6
2009-01-30 08:18:13 51°14.266 2°55.262 321.8 9 318 8.6
2009-01-30 08:18:19 51°14.277 2°55.245 320.4 9 317 8.7
2009-01-30 08:18:23 51°14.284 2°55.234 318.9 9.1 314 8.7
2009-01-30 08:18:28 51°14.293 2°55.218 316.7 9.2 312 8.7
2009-01-30 08:18:32 51°14.299 2°55.206 314.6 9.2 311 8.7
2009-01-30 08:18:39 51°14.31 2°55.183 312.5 9.3 308 8.8
2009-01-30 08:18:43 51°14.317 2°55.17 310.1 9.4 307 8.8
2009-01-30 08:18:48 51°14.324 2°55.153 308.6 9.5 306 8.8
2009-01-30 08:18:52 51°14.33 2°55.139 307.3 9.6 305 8.9
2009-01-30 08:18:59 51°14.341 2°55.114 306.4 9.7 305 8.9
2009-01-30 08:19:03 51°14.348 2°55.1 306.1 9.8 305 8.9
2009-01-30 08:19:08 51°14.355 2°55.082 306.3 9.9 305 8.9
2009-01-30 08:19:12 51°14.361 2°55.068 306.2 9.9 304 8.9
2009-01-30 08:19:18 51°14.371 2°55.046 305.5 10 305 9
2009-01-30 08:19:23 51°14.379 2°55.028 305.5 10.1 306 9.1
2009-01-30 08:19:28 51°14.388 2°55.011 306.6 10.1 309 9.1
2009-01-30 08:19:32 51°14.396 2°54.997 308.7 10.2 311 9.1
2009-01-30 08:19:39 51°14.409 2°54.974 311.5 10.2 313 8.9
2009-01-30 08:19:43 51°14.417 2°54.962 314.5 10.2 315 8.9
2009-01-30 08:19:48 51°14.428 2°54.946 317.3 10.2 317 9
2009-01-30 08:19:54 51°14.441 2°54.928 319.6 10.3 318 9
2009-01-30 08:19:59 51°14.452 2°54.913 321.3 10.4 319 9.2
2009-01-30 08:20:03 51°14.46 2°54.901 323.1 10.5 320 9
2009-01-30 08:20:08 51°14.472 2°54.886 324.1 10.6 319 9
2009-01-30 08:20:14 51°14.485 2°54.868 324.4 10.6 321 8.9
2009-01-30 08:20:19 51°14.497 2°54.854 325.4 10.7 323 8.8
2009-01-30 08:20:23 51°14.507 2°54.843 327.5 10.7 325 8.8
2009-01-30 08:20:28 51°14.519 2°54.83 329.9 10.8 325 8.6
2009-01-30 08:20:32 51°14.529 2°54.819 330.8 10.8 325 8.6
2009-01-30 08:20:39 51°14.547 2°54.8 330.8 10.9 326 8.4
2009-01-30 08:20:43 51°14.557 2°54.79 332 10.9 329 8.4
2009-01-30 08:20:48 51°14.57 2°54.776 334.1 11.1 327 8.3
2009-01-30 08:20:52 51°14.58 2°54.766 334.7 11.2 327 8.2
2009-01-30 08:20:59 51°14.599 2°54.747 334.7 11.3 327 8.2
2009-01-30 08:21:03 51°14.61 2°54.736 334.7 11.5 328 8.1
2009-01-30 08:21:08 51°14.623 2°54.723 334.8 11.6 327 8
2009-01-30 08:21:12 51°14.634 2°54.712 334.8 11.6 328 8
2009-01-30 08:21:19 51°14.653 2°54.692 334.9 11.8 328 8
2009-01-30 08:21:23 51°14.665 2°54.681 335.1 11.9 328 8
2009-01-30 08:21:28 51°14.679 2°54.667 335.1 11.9 329 8
2009-01-30 08:21:32 51°14.69 2°54.656 335.3 12 329 8.1
2009-01-30 08:21:39 51°14.71 2°54.637 335.3 12.1 329 8.1
2009-01-30 08:21:43 51°14.721 2°54.626 335.2 12.1 328 8.1
2009-01-30 08:21:48 51°14.736 2°54.611 335 12.1 328 8.1
2009-01-30 08:21:52 51°14.747 2°54.6 334.3 12.1 327 8.2
2009-01-30 08:21:59 51°14.766 2°54.579 333.4 12.1 327 8.1
2009-01-30 08:22:03 51°14.778 2°54.567 332.8 12.1 326 8
2009-01-30 08:22:08 51°14.791 2°54.552 332.4 12.1 326 8
2009-01-30 08:22:12 51°14.802 2°54.54 332.1 12.1 326 7.9
2009-01-30 08:22:19 51°14.822 2°54.519 331.7 12.1 326 7.8
2009-01-30 08:22:23 51°14.833 2°54.507 331.5 12.1 326 7.9
2009-01-30 08:22:28 51°14.847 2°54.492 331.5 12.1 327 7.9
2009-01-30 08:22:32 51°14.858 2°54.481 332.1 12.1 328 7.7
2009-01-30 08:22:39 51°14.878 2°54.461 332.9 12 328 7.5
2009-01-30 08:22:43 51°14.889 2°54.45 333.7 12 327 5.6
2009-01-30 08:22:48 51°14.903 2°54.436 333.4 11.9 328 7.4
2009-01-30 08:22:53 51°14.917 2°54.421 333.1 11.9 327 -999
2009-01-30 08:22:59 51°14.934 2°54.404 332.8 11.9 327 7.2
2009-01-30 08:23:03 51°14.945 2°54.393 332.5 11.8 327 6.7
2009-01-30 08:23:08 51°14.958 2°54.379 332.4 11.7 327 6.6
2009-01-30 08:23:12 51°14.969 2°54.368 332.3 11.6 328 6.7
2009-01-30 08:23:19 51°14.988 2°54.349 332.8 11.7 328 6.9
2009-01-30 08:23:23 51°14.999 2°54.338 333.3 11.7 328 6.5
2009-01-30 08:23:28 51°15.013 2°54.324 333.4 11.7 328 6.3
2009-01-30 08:23:32 51°15.024 2°54.313 333.6 11.7 328 6.6
2009-01-30 08:23:39 51°15.043 2°54.294 333.6 11.7 329 6.8
2009-01-30 08:23:44 51°15.057 2°54.281 334.1 11.8 329 7
2009-01-30 08:23:48 51°15.069 2°54.271 334.8 11.9 331 7.1
2009-01-30 08:23:52 51°15.08 2°54.26 335.7 12 330 7.3
2009-01-30 08:23:59 51°15.101 2°54.242 335.8 12.1 331 8.5
2009-01-30 08:24:04 51°15.115 2°54.228 335.6 12.2 330 9
2009-01-30 08:24:08 51°15.127 2°54.217 335.4 12.3 330 9.4
2009-01-30 08:24:14 51°15.145 2°54.2 334.9 12.4 329 9.7
2009-01-30 08:24:19 51°15.159 2°54.186 334.3 12.4 329 9.7
2009-01-30 08:24:23 51°15.171 2°54.174 333.7 12.4 328 9.7
2009-01-30 08:24:28 51°15.186 2°54.16 333.1 12.3 328 9.9
2009-01-30 08:24:32 51°15.197 2°54.148 332.8 12.3 327 9.9
2009-01-30 08:24:39 51°15.217 2°54.128 332.5 12.3 327 9.7
2009-01-30 08:24:43 51°15.229 2°54.117 332.2 12.2 328 9.8
2009-01-30 08:24:48 51°15.243 2°54.102 332.3 12.2 328 9.9
2009-01-30 08:24:54 51°15.261 2°54.086 332.7 12.2 329 9.8
2009-01-30 08:24:59 51°15.275 2°54.072 333.6 12.2 329 9.6
2009-01-30 08:25:03 51°15.287 2°54.062 334.1 12.1 330 9.6
2009-01-30 08:25:08 51°15.301 2°54.048 334.9 12.1 330 9.8
2009-01-30 08:25:12 51°15.313 2°54.038 335.1 12.1 331 9.5
2009-01-30 08:25:19 51°15.334 2°54.019 335.5 12.1 331 9.9
2009-01-30 08:25:23 51°15.345 2°54.009 335.7 12.2 330 9.9
2009-01-30 08:25:28 51°15.36 2°53.995 335.7 12.2 330 9.9
2009-01-30 08:25:32 51°15.372 2°53.985 335.6 12.1 332 9.8
2009-01-30 08:25:39 51°15.393 2°53.967 336.5 12.2 331 9.7
2009-01-30 08:25:43 51°15.405 2°53.957 336.7 12.2 331 9.8
2009-01-30 08:25:48 51°15.42 2°53.944 336.7 12.2 331 9.7
2009-01-30 08:25:52 51°15.432 2°53.933 336.7 12.2 331 10
2009-01-30 08:25:58 51°15.449 2°53.917 336.2 12.2 330 9.8
2009-01-30 08:26:03 51°15.464 2°53.904 336.1 12.2 330 10
2009-01-30 08:26:07 51°15.476 2°53.893 335.8 12.2 330 9.8
2009-01-30 08:26:12 51°15.491 2°53.88 335.8 12.2 331 9.9
2009-01-30 08:26:18 51°15.508 2°53.864 336.8 12.2 331 10
2009-01-30 08:26:22 51°15.52 2°53.854 337.6 12.2 333 9.9
2009-01-30 08:26:27 51°15.535 2°53.842 338.6 12.2 332 9.9
2009-01-30 08:26:32 51°15.55 2°53.829 338.7 12.1 333 9.9
2009-01-30 08:26:38 51°15.568 2°53.815 339.2 12.2 333 9.7
2009-01-30 08:26:42 51°15.58 2°53.805 339.5 12.2 333 10.1
2009-01-30 08:26:47 51°15.595 2°53.793 339.5 12.1 333 9.7
2009-01-30 08:26:53 51°15.613 2°53.779 339.9 12.1 334 9.7
2009-01-30 08:26:59 51°15.631 2°53.764 340.4 12.2 333 9.7
2009-01-30 08:27:03 51°15.643 2°53.754 340.2 12.2 333 9.5
2009-01-30 08:27:08 51°15.658 2°53.742 339.9 12.2 332 9.5
2009-01-30 08:27:12 51°15.67 2°53.731 339.6 12.2 332 9.5
2009-01-30 08:27:19 51°15.691 2°53.713 339.6 12.2 331 9.4
2009-01-30 08:27:23 51°15.703 2°53.703 339.2 12.2 332 9.4
2009-01-30 08:27:28 51°15.718 2°53.69 339.1 12.2 332 9.3
2009-01-30 08:27:32 51°15.73 2°53.68 339.2 12.2 332 9.4
2009-01-30 08:27:39 51°15.751 2°53.663 339.7 12.2 332 9.7
2009-01-30 08:27:43 51°15.763 2°53.653 339.9 12.2 332 9.4
2009-01-30 08:27:48 51°15.777 2°53.639 339.8 12.3 330 9.6
2009-01-30 08:27:52 51°15.789 2°53.628 338.5 12.2 331 9.5
2009-01-30 08:27:59 51°15.81 2°53.609 338 12.3 330 9.6
2009-01-30 08:28:03 51°15.822 2°53.599 337.8 12.3 331 9.5
2009-01-30 08:28:08 51°15.837 2°53.586 338.1 12.3 331 9.6
2009-01-30 08:28:12 51°15.848 2°53.575 338.6 12.3 331 9.3
2009-01-30 08:28:19 51°15.869 2°53.557 338.9 12.3 331 9.6
2009-01-30 08:28:23 51°15.881 2°53.546 339.3 12.3 331 9.6
2009-01-30 08:28:28 51°15.896 2°53.533 339.2 12.3 331 9.6
2009-01-30 08:28:32 51°15.908 2°53.522 338.7 12.3 331 9.7
2009-01-30 08:28:39 51°15.929 2°53.504 338.8 12.3 332 9.7
2009-01-30 08:28:43 51°15.941 2°53.494 339.2 12.3 331 9.6
2009-01-30 08:28:48 51°15.956 2°53.481 339.2 12.3 332 9.7
2009-01-30 08:28:52 51°15.968 2°53.47 339.2 12.3 331 9.7
2009-01-30 08:28:59 51°15.99 2°53.452 338.8 12.3 332 9.8
2009-01-30 08:29:03 51°16.002 2°53.442 338.7 12.3 331 9.7
2009-01-30 08:29:08 51°16.016 2°53.428 338.7 12.4 330 9.8
2009-01-30 08:29:14 51°16.035 2°53.413 338 12.3 331 9.8
2009-01-30 08:29:19 51°16.05 2°53.399 338.3 12.4 331 9.8
2009-01-30 08:29:23 51°16.062 2°53.389 338.5 12.4 331 9.8
2009-01-30 08:29:28 51°16.077 2°53.376 338.5 12.4 331 9.9
2009-01-30 08:29:32 51°16.089 2°53.365 338.5 12.4 331 9.9
2009-01-30 08:29:39 51°16.11 2°53.346 338.4 12.4 331 9.9
2009-01-30 08:29:43 51°16.122 2°53.336 338.4 12.4 332 10
2009-01-30 08:29:48 51°16.137 2°53.323 338.5 12.4 331 10
2009-01-30 08:29:52 51°16.149 2°53.312 338.6 12.4 331 10
2009-01-30 08:29:59 51°16.17 2°53.294 338.5 12.4 331 10
2009-01-30 08:30:03 51°16.182 2°53.283 338.4 12.4 331 10.1
2009-01-30 08:30:08 51°16.197 2°53.27 338.3 12.4 331 10
2009-01-30 08:30:12 51°16.209 2°53.259 338.1 12.4 331 10
2009-01-30 08:30:19 51°16.23 2°53.24 338 12.4 331 10
2009-01-30 08:30:23 51°16.242 2°53.23 338.4 12.4 331 10
2009-01-30 08:30:28 51°16.257 2°53.216 338 12.4 331 10.1
2009-01-30 08:30:32 51°16.269 2°53.206 337.9 12.4 331 10.1
2009-01-30 08:30:39 51°16.29 2°53.187 337.9 12.4 331 10.1
2009-01-30 08:30:43 51°16.302 2°53.177 337.9 12.4 331 10.1
2009-01-30 08:30:48 51°16.317 2°53.163 338.1 12.4 331 10.1
2009-01-30 08:30:54 51°16.335 2°53.147 338.4 12.4 331 10.2
2009-01-30 08:30:59 51°16.35 2°53.134 338.3 12.4 331 10.2
2009-01-30 08:31:03 51°16.362 2°53.123 337.9 12.4 331 10.1
2009-01-30 08:31:08 51°16.377 2°53.109 337.9 12.4 330 10.2
2009-01-30 08:31:12 51°16.389 2°53.099 337.7 12.4 331 10.1
2009-01-30 08:31:19 51°16.41 2°53.08 337.7 12.4 330 10.1
2009-01-30 08:31:23 51°16.422 2°53.069 337.7 12.4 330 10.1
2009-01-30 08:31:28 51°16.437 2°53.055 337.5 12.4 330 10.2
2009-01-30 08:31:34 51°16.455 2°53.039 337.6 12.4 330 10.1
2009-01-30 08:31:39 51°16.47 2°53.026 337.6 12.4 330 10.1
2009-01-30 08:31:43 51°16.482 2°53.015 337.6 12.4 331 10.1
2009-01-30 08:31:48 51°16.497 2°53.002 337.6 12.4 331 10.1
2009-01-30 08:31:54 51°16.515 2°52.986 338.3 12.3 332 10
2009-01-30 08:31:59 51°16.53 2°52.974 338.7 12.3 332 10.1
2009-01-30 08:32:03 51°16.542 2°52.963 338.8 12.3 331 10
2009-01-30 08:32:08 51°16.556 2°52.949 338.1 12.3 330 10.1
2009-01-30 08:32:12 51°16.568 2°52.939 337.4 12.3 331 10
2009-01-30 08:32:19 51°16.589 2°52.92 337 12.3 330 10
2009-01-30 08:32:23 51°16.601 2°52.909 336.5 12.3 330 9.9
2009-01-30 08:32:28 51°16.616 2°52.896 336.5 12.2 331 9.8
2009-01-30 08:32:32 51°16.628 2°52.886 337.1 12.2 332 9.8
2009-01-30 08:32:38 51°16.646 2°52.871 337.8 12.2 332 9.7
2009-01-30 08:32:43 51°16.661 2°52.858 338 12.2 333 9.7
2009-01-30 08:32:48 51°16.676 2°52.846 338.4 12.2 333 9.6
2009-01-30 08:32:52 51°16.688 2°52.836 338.6 12.2 333 9.5
2009-01-30 08:32:59 51°16.708 2°52.819 338.7 12.1 333 9.3
2009-01-30 08:33:04 51°16.723 2°52.807 338.6 12.1 333 9.2
2009-01-30 08:33:08 51°16.735 2°52.797 338.6 12.1 334 9
2009-01-30 08:33:12 51°16.747 2°52.788 338.8 12 334 8.7
2009-01-30 08:33:19 51°16.768 2°52.772 338.9 12 334 8.4
2009-01-30 08:33:23 51°16.78 2°52.762 339.1 11.9 335 8.1
2009-01-30 08:33:28 51°16.795 2°52.751 339.3 11.8 334 8
2009-01-30 08:33:34 51°16.813 2°52.738 339.6 11.8 335 8
2009-01-30 08:33:39 51°16.827 2°52.726 339.6 11.9 334 7.9
2009-01-30 08:33:43 51°16.839 2°52.718 339.6 11.8 335 7.9
2009-01-30 08:33:48 51°16.854 2°52.706 339.8 11.9 334 7.7
2009-01-30 08:33:54 51°16.872 2°52.693 339.9 11.9 335 7.7
2009-01-30 08:33:59 51°16.887 2°52.682 339.7 11.8 335 7.8
2009-01-30 08:34:03 51°16.899 2°52.673 339.9 11.9 335 7.7
2009-01-30 08:34:08 51°16.914 2°52.662 340.2 11.9 335 7.8
2009-01-30 08:34:12 51°16.926 2°52.653 340.2 11.9 335 7.9
2009-01-30 08:34:19 51°16.947 2°52.637 340.4 12 334 8
2009-01-30 08:34:23 51°16.959 2°52.629 340 12 335 8.1
2009-01-30 08:34:28 51°16.974 2°52.617 340.1 12 335 8.2
2009-01-30 08:34:32 51°16.986 2°52.608 340.2 12 335 8.2
2009-01-30 08:34:39 51°17.007 2°52.592 340 12.1 335 8.2
2009-01-30 08:34:43 51°17.019 2°52.584 340.2 12 336 8.1
2009-01-30 08:34:48 51°17.035 2°52.572 340.7 12 335 8
2009-01-30 08:34:52 51°17.046 2°52.563 340.7 11.9 335 7.9
2009-01-30 08:34:59 51°17.067 2°52.548 340.5 11.9 335 7.8
2009-01-30 08:35:03 51°17.079 2°52.539 340.4 11.9 335 7.9
2009-01-30 08:35:08 51°17.094 2°52.527 340.2 11.9 334 8
2009-01-30 08:35:12 51°17.106 2°52.518 339.9 11.9 336 7.9
2009-01-30 08:35:19 51°17.127 2°52.503 340.4 11.9 335 7.9
2009-01-30 08:35:22 51°17.136 2°52.497 340.8 11.9 335 8
2009-01-30 08:35:27 51°17.151 2°52.485 341 12 335 8.2
2009-01-30 08:35:32 51°17.166 2°52.474 340.8 12 335 8.2
2009-01-30 08:35:39 51°17.188 2°52.458 340.3 12 335 8.2
2009-01-30 08:35:43 51°17.2 2°52.449 340.7 12 335 8.2
2009-01-30 08:35:48 51°17.215 2°52.438 340.8 12 335 8.3
2009-01-30 08:35:54 51°17.233 2°52.424 340.7 12 334 8.3
2009-01-30 08:35:59 51°17.248 2°52.413 340.5 12 334 8.5
2009-01-30 08:36:03 51°17.26 2°52.404 339.9 12 335 8.4
2009-01-30 08:36:08 51°17.275 2°52.392 340 12 334 8.5
2009-01-30 08:36:14 51°17.293 2°52.379 340.4 12 335 8.5
2009-01-30 08:36:19 51°17.308 2°52.367 340.4 12 334 8.6
2009-01-30 08:36:23 51°17.32 2°52.358 340.3 12.1 335 8.5
2009-01-30 08:36:28 51°17.335 2°52.347 340.4 12.1 335 8.6
2009-01-30 08:36:32 51°17.347 2°52.338 340.8 12.1 335 8.7
2009-01-30 08:36:39 51°17.369 2°52.322 340.9 12.1 335 8.7
2009-01-30 08:36:42 51°17.378 2°52.315 340.7 12.1 334 8.7
2009-01-30 08:36:48 51°17.396 2°52.301 340.6 12.1 335 8.6
2009-01-30 08:36:52 51°17.408 2°52.292 340.6 12.1 334 8.7
2009-01-30 08:36:59 51°17.429 2°52.275 340 12 333 8.7
2009-01-30 08:37:03 51°17.44 2°52.264 339 12.1 331 8.7
2009-01-30 08:37:08 51°17.455 2°52.251 338 12.1 331 8.8
2009-01-30 08:37:12 51°17.467 2°52.241 337.2 12.1 330 8.8
2009-01-30 08:37:19 51°17.487 2°52.222 336.4 12.1 330 8.8
2009-01-30 08:37:24 51°17.502 2°52.209 336 12.1 330 8.7
2009-01-30 08:37:28 51°17.513 2°52.198 335.8 12.1 332 8.7
2009-01-30 08:37:34 51°17.531 2°52.183 336.6 12.1 331 8.8
2009-01-30 08:37:39 51°17.546 2°52.17 337.2 12.1 332 8.8
2009-01-30 08:37:43 51°17.558 2°52.16 337.8 12.1 331 8.8
2009-01-30 08:37:48 51°17.572 2°52.147 337.9 12.1 331 8.7
2009-01-30 08:37:52 51°17.584 2°52.137 337.5 12.1 331 8.7
2009-01-30 08:37:59 51°17.604 2°52.117 337 12.1 329 8.7
2009-01-30 08:38:03 51°17.616 2°52.107 336.1 12.1 330 8.7
2009-01-30 08:38:08 51°17.63 2°52.093 335.8 12.1 329 8.7
2009-01-30 08:38:14 51°17.648 2°52.076 335.6 12.1 329 8.7
2009-01-30 08:38:19 51°17.662 2°52.063 335.2 12.1 329 8.6
2009-01-30 08:38:23 51°17.673 2°52.051 335.1 12.1 328 8.6
2009-01-30 08:38:28 51°17.688 2°52.037 334.8 12.1 328 8.5
2009-01-30 08:38:32 51°17.699 2°52.026 334.4 12 328 8.6
2009-01-30 08:38:39 51°17.719 2°52.007 334.5 12 329 8.6
2009-01-30 08:38:43 51°17.73 2°51.996 335.1 12 329 8.6
2009-01-30 08:38:48 51°17.745 2°51.982 335.4 12 329 8.6
2009-01-30 08:38:52 51°17.756 2°51.971 335.5 12.1 328 8.5
2009-01-30 08:38:59 51°17.776 2°51.951 335 12 328 8.5
2009-01-30 08:39:03 51°17.787 2°51.94 334.7 12.1 329 8.5
2009-01-30 08:39:08 51°17.802 2°51.927 334.6 12 329 8.5
2009-01-30 08:39:12 51°17.813 2°51.916 335 12 329 8.5
2009-01-30 08:39:18 51°17.83 2°51.899 335.4 12.1 329 8.5
2009-01-30 08:39:23 51°17.845 2°51.885 335.5 12.1 329 8.5
2009-01-30 08:39:28 51°17.859 2°51.872 335.4 12.1 329 8.5
2009-01-30 08:39:32 51°17.871 2°51.861 335.2 12.1 329 8.5
2009-01-30 08:39:39 51°17.891 2°51.842 335.7 12.1 329 8.5
2009-01-30 08:39:44 51°17.905 2°51.827 335.8 12.1 328 8.5
2009-01-30 08:39:48 51°17.917 2°51.816 335.5 12.1 329 8.6
2009-01-30 08:39:52 51°17.928 2°51.805 335.2 12.2 328 8.6
2009-01-30 08:39:59 51°17.948 2°51.785 334.8 12.2 328 8.6
2009-01-30 08:40:03 51°17.96 2°51.773 334.1 12.2 327 8.7
2009-01-30 08:40:08 51°17.974 2°51.758 333.6 12.2 327 8.7
2009-01-30 08:40:14 51°17.991 2°51.741 333.4 12.2 327 8.8
2009-01-30 08:40:19 51°18.005 2°51.726 333.4 12.2 328 8.8
2009-01-30 08:40:23 51°18.017 2°51.714 333.4 12.3 327 8.8
2009-01-30 08:40:28 51°18.031 2°51.7 333.7 12.2 328 8.9
2009-01-30 08:40:34 51°18.048 2°51.682 334.1 12.3 327 9.1
2009-01-30 08:40:39 51°18.063 2°51.668 333.7 12.3 327 9
2009-01-30 08:40:43 51°18.074 2°51.656 333.7 12.2 327 9.1
2009-01-30 08:40:48 51°18.088 2°51.642 333.8 12.3 328 9.2
2009-01-30 08:40:54 51°18.105 2°51.624 334 12.3 327 9.2
2009-01-30 08:40:59 51°18.12 2°51.609 333.4 12.3 328 9.3
2009-01-30 08:41:03 51°18.132 2°51.598 333.6 12.3 328 9.4
2009-01-30 08:41:08 51°18.146 2°51.584 334.8 12.3 329 9.5
2009-01-30 08:41:13 51°18.161 2°51.57 335.6 12.4 329 9.6
2009-01-30 08:41:19 51°18.179 2°51.554 336.1 12.3 331 9.7
2009-01-30 08:41:23 51°18.191 2°51.543 337 12.4 329 9.8
2009-01-30 08:41:28 51°18.205 2°51.528 336.5 12.3 329 9.8
2009-01-30 08:41:33 51°18.219 2°51.513 335.6 12.4 326 9.9
2009-01-30 08:41:39 51°18.237 2°51.496 334.2 12.4 327 10.1
2009-01-30 08:41:43 51°18.248 2°51.483 333.5 12.4 326 10.2
2009-01-30 08:41:48 51°18.263 2°51.468 333.3 12.4 327 10.3
2009-01-30 08:41:53 51°18.277 2°51.453 333.5 12.4 327 10.4
2009-01-30 08:41:59 51°18.295 2°51.435 333.8 12.4 327 10.4
2009-01-30 08:42:03 51°18.306 2°51.423 333.8 12.4 327 10.6
2009-01-30 08:42:08 51°18.321 2°51.408 333.8 12.5 327 10.7
2009-01-30 08:42:12 51°18.332 2°51.396 334.1 12.5 327 10.8
2009-01-30 08:42:19 51°18.352 2°51.374 334 12.5 325 10.8
2009-01-30 08:42:23 51°18.364 2°51.362 332.6 12.5 325 11
2009-01-30 08:42:28 51°18.378 2°51.346 332.1 12.5 325 11.1
2009-01-30 08:42:34 51°18.395 2°51.327 331.7 12.5 326 11.2
2009-01-30 08:42:39 51°18.41 2°51.312 332.3 12.5 326 11.3
2009-01-30 08:42:43 51°18.421 2°51.3 332.8 12.5 326 11.4
2009-01-30 08:42:48 51°18.435 2°51.284 332.9 12.5 326 11.5
2009-01-30 08:42:54 51°18.453 2°51.266 333.2 12.5 326 11.7
2009-01-30 08:42:59 51°18.467 2°51.25 333 12.5 326 11.7
2009-01-30 08:43:03 51°18.478 2°51.237 332.7 12.5 325 11.8
2009-01-30 08:43:08 51°18.493 2°51.222 332.4 12.5 326 11.9
2009-01-30 08:43:14 51°18.51 2°51.203 332.6 12.5 326 11.9
2009-01-30 08:43:19 51°18.524 2°51.188 332.7 12.5 326 12
2009-01-30 08:43:23 51°18.536 2°51.176 332.7 12.5 326 12.1
2009-01-30 08:43:28 51°18.55 2°51.16 332.8 12.5 326 12.1
2009-01-30 08:43:33 51°18.564 2°51.145 332.9 12.5 326 12.2
2009-01-30 08:43:39 51°18.582 2°51.126 332.6 12.5 325 12.2
2009-01-30 08:43:43 51°18.593 2°51.113 332.3 12.5 326 12.2
2009-01-30 08:43:48 51°18.607 2°51.098 332.4 12.5 326 12.3
2009-01-30 08:43:53 51°18.622 2°51.082 332.6 12.5 325 12.4
2009-01-30 08:43:59 51°18.638 2°51.062 332.5 12.5 324 12.5
2009-01-30 08:44:04 51°18.652 2°51.046 331.2 12.5 324 12.5
2009-01-30 08:44:08 51°18.663 2°51.032 330.5 12.5 323 12.5
2009-01-30 08:44:14 51°18.68 2°51.012 329.8 12.5 323 12.6
2009-01-30 08:44:19 51°18.694 2°50.996 329.6 12.5 323 12.6
2009-01-30 08:44:23 51°18.705 2°50.983 330.3 12.5 325 12.8
2009-01-30 08:44:28 51°18.719 2°50.966 331.1 12.5 323 12.7
2009-01-30 08:44:33 51°18.733 2°50.95 330.8 12.6 323 12.8
2009-01-30 08:44:39 51°18.75 2°50.929 330.2 12.5 322 12.9
2009-01-30 08:44:43 51°18.761 2°50.916 329.7 12.5 323 12.9
2009-01-30 08:44:48 51°18.774 2°50.899 329.8 12.5 322 12.9
2009-01-30 08:44:54 51°18.791 2°50.879 329.5 12.5 323 12.9
2009-01-30 08:44:59 51°18.805 2°50.863 329.8 12.5 324 12.9
2009-01-30 08:45:03 51°18.817 2°50.85 330.6 12.5 325 12.9
2009-01-30 08:45:08 51°18.831 2°50.834 331.3 12.5 324 13
2009-01-30 08:45:14 51°18.848 2°50.815 331.9 12.5 325 12.9
2009-01-30 08:45:19 51°18.862 2°50.799 332.3 12.5 325 13
2009-01-30 08:45:23 51°18.874 2°50.786 332.6 12.5 326 13.1
2009-01-30 08:45:28 51°18.888 2°50.77 332.8 12.5 325 13.1
2009-01-30 08:45:34 51°18.905 2°50.752 333 12.5 326 13
2009-01-30 08:45:39 51°18.92 2°50.736 333.2 12.6 326 13
2009-01-30 08:45:43 51°18.931 2°50.723 333.1 12.6 325 13
2009-01-30 08:45:48 51°18.945 2°50.708 332.9 12.6 325 12.9
2009-01-30 08:45:53 51°18.96 2°50.691 332.7 12.6 325 12.9
2009-01-30 08:45:59 51°18.977 2°50.673 332.7 12.6 325 12.9
2009-01-30 08:46:03 51°18.988 2°50.66 332.7 12.6 325 12.9
2009-01-30 08:46:08 51°19.003 2°50.644 332.6 12.5 325 12.8
2009-01-30 08:46:13 51°19.017 2°50.628 332.9 12.6 325 12.8
2009-01-30 08:46:19 51°19.034 2°50.609 332.5 12.6 325 12.8
2009-01-30 08:46:24 51°19.048 2°50.592 332.2 12.6 324 12.7
2009-01-30 08:46:28 51°19.06 2°50.579 331.7 12.6 325 12.7
2009-01-30 08:46:33 51°19.074 2°50.563 332 12.6 325 12.5
2009-01-30 08:46:39 51°19.091 2°50.544 332.3 12.5 325 12.3
2009-01-30 08:46:44 51°19.105 2°50.528 332.4 12.6 324 12.2
2009-01-30 08:46:48 51°19.116 2°50.514 332.1 12.6 323 12.1
2009-01-30 08:46:54 51°19.133 2°50.494 331.3 12.6 323 11.8
2009-01-30 08:46:59 51°19.147 2°50.477 330.5 12.6 322 11.7
2009-01-30 08:47:03 51°19.158 2°50.464 329.9 12.5 323 11.6
2009-01-30 08:47:08 51°19.172 2°50.447 329.9 12.6 322 11.5
2009-01-30 08:47:13 51°19.186 2°50.43 329.8 12.5 324 11.3
2009-01-30 08:47:19 51°19.203 2°50.411 330.6 12.5 324 11.3
2009-01-30 08:47:23 51°19.214 2°50.398 331.1 12.5 324 11.1
2009-01-30 08:47:28 51°19.228 2°50.38 331.2 12.6 322 11
2009-01-30 08:47:34 51°19.245 2°50.361 330 12.6 324 10.8
2009-01-30 08:47:39 51°19.259 2°50.344 330.3 12.6 324 10.7
2009-01-30 08:47:43 51°19.27 2°50.331 331 12.6 324 10.4
2009-01-30 08:47:48 51°19.284 2°50.315 331.4 12.6 325 10.4
2009-01-30 08:47:54 51°19.301 2°50.296 332 12.6 325 10.3
2009-01-30 08:47:59 51°19.316 2°50.28 332.1 12.6 325 10.3
2009-01-30 08:48:03 51°19.327 2°50.267 332.4 12.6 325 10.5
2009-01-30 08:48:08 51°19.341 2°50.251 332.3 12.7 325 10.1
2009-01-30 08:48:13 51°19.356 2°50.235 331.8 12.7 325 10.6
2009-01-30 08:48:19 51°19.373 2°50.215 332.1 12.7 325 10.4
2009-01-30 08:48:23 51°19.385 2°50.203 332.3 12.7 325 10.2
2009-01-30 08:48:28 51°19.399 2°50.186 332.5 12.7 324 9.9
2009-01-30 08:48:33 51°19.413 2°50.169 331.5 12.6 323 9.7
2009-01-30 08:48:39 51°19.43 2°50.149 330.7 12.7 322 9.9
2009-01-30 08:48:43 51°19.441 2°50.135 329.5 12.7 322 9.7
2009-01-30 08:48:48 51°19.455 2°50.118 329.5 12.6 323 9.6
2009-01-30 08:48:53 51°19.469 2°50.102 329.9 12.7 324 9.7
2009-01-30 08:48:59 51°19.486 2°50.082 330.3 12.6 324 9.7
2009-01-30 08:49:03 51°19.497 2°50.069 330.9 12.7 324 10
2009-01-30 08:49:08 51°19.511 2°50.052 331 12.7 324 10.2
2009-01-30 08:49:14 51°19.529 2°50.032 331 12.7 324 10.7
2009-01-30 08:49:19 51°19.543 2°50.016 331.1 12.8 324 11
2009-01-30 08:49:23 51°19.555 2°50.003 331 12.7 325 11.4
2009-01-30 08:49:28 51°19.569 2°49.986 331.7 12.7 325 11.8
2009-01-30 08:49:34 51°19.586 2°49.967 332 12.7 325 11.9
2009-01-30 08:49:39 51°19.601 2°49.951 332 12.7 325 12
2009-01-30 08:49:43 51°19.612 2°49.938 331.5 12.8 324 12.3
2009-01-30 08:49:48 51°19.627 2°49.921 331.1 12.7 325 12.5
2009-01-30 08:49:54 51°19.644 2°49.902 331.2 12.7 325 12.5
2009-01-30 08:49:59 51°19.659 2°49.886 331.5 12.7 325 12.6
2009-01-30 08:50:03 51°19.67 2°49.873 331.8 12.7 325 12.7
2009-01-30 08:50:08 51°19.685 2°49.857 331.9 12.7 325 12.8
2009-01-30 08:50:14 51°19.702 2°49.837 331.9 12.7 325 12.7
2009-01-30 08:50:19 51°19.716 2°49.821 331.5 12.7 324 12.8
2009-01-30 08:50:23 51°19.728 2°49.808 331.3 12.7 325 13
2009-01-30 08:50:28 51°19.742 2°49.792 331.7 12.7 325 12.9
2009-01-30 08:50:33 51°19.757 2°49.777 332 12.7 327 13
2009-01-30 08:50:39 51°19.775 2°49.758 333.1 12.8 327 13.2
2009-01-30 08:50:44 51°19.79 2°49.743 333.8 12.7 328 13.5
2009-01-30 08:50:48 51°19.802 2°49.731 334.5 12.8 328 13.8
2009-01-30 08:50:53 51°19.817 2°49.716 334.9 12.8 328 14.1
2009-01-30 08:50:59 51°19.835 2°49.698 334.9 12.8 327 14.3
2009-01-30 08:51:03 51°19.847 2°49.685 335.1 12.9 328 14.6
2009-01-30 08:51:08 51°19.862 2°49.67 335.5 12.9 327 14.8
2009-01-30 08:51:13 51°19.877 2°49.654 335.2 12.9 327 15.1
2009-01-30 08:51:19 51°19.895 2°49.635 334.6 12.9 326 15.3
2009-01-30 08:51:23 51°19.907 2°49.622 334.6 12.9 327 15.5
2009-01-30 08:51:28 51°19.922 2°49.607 334.5 12.9 326 15.6
2009-01-30 08:51:34 51°19.94 2°49.587 334.5 12.9 326 15.9
2009-01-30 08:51:39 51°19.955 2°49.571 334.5 13 326 16
2009-01-30 08:51:43 51°19.966 2°49.558 334.2 13 325 16.2
2009-01-30 08:51:48 51°19.981 2°49.542 333.7 13 326 16.4
2009-01-30 08:51:54 51°19.999 2°49.523 333.7 13 325 16.7
2009-01-30 08:51:59 51°20.014 2°49.506 333.6 13 325 16.9
2009-01-30 08:52:03 51°20.026 2°49.493 333.5 13 325 17.1
2009-01-30 08:52:08 51°20.041 2°49.476 333.4 13 325 17.4
2009-01-30 08:52:14 51°20.058 2°49.456 333.3 13 325 17.6
2009-01-30 08:52:19 51°20.073 2°49.44 333.3 13 325 17.8
2009-01-30 08:52:23 51°20.085 2°49.426 333.5 13 325 18.1
2009-01-30 08:52:28 51°20.1 2°49.41 333.7 13.1 324 18.4
2009-01-30 08:52:33 51°20.114 2°49.392 333 13.1 323 18.5
2009-01-30 08:52:39 51°20.132 2°49.371 332.4 13.1 323 18.7
2009-01-30 08:52:43 51°20.143 2°49.357 331.6 13.1 322 19
2009-01-30 08:52:48 51°20.158 2°49.34 331 13.1 323 19.1
2009-01-30 08:52:53 51°20.172 2°49.322 330.8 13.1 322 19.5
2009-01-30 08:52:59 51°20.19 2°49.301 331.1 13.1 325 19.7
2009-01-30 08:53:03 51°20.202 2°49.287 332.1 13.1 323 19.9
2009-01-30 08:53:08 51°20.216 2°49.271 332.3 13 325 20.1
2009-01-30 08:53:13 51°20.231 2°49.254 332.8 13.1 325 20.2
2009-01-30 08:53:19 51°20.249 2°49.234 333.3 13.1 325 20.5
2009-01-30 08:53:24 51°20.264 2°49.217 333.4 13.1 324 20.5
2009-01-30 08:53:28 51°20.276 2°49.204 333.4 13.1 325 20.7
2009-01-30 08:53:34 51°20.294 2°49.184 333.4 13.1 324 20.8
2009-01-30 08:53:39 51°20.308 2°49.167 333.3 13.1 324 21
2009-01-30 08:53:44 51°20.323 2°49.15 332.9 13.1 325 20.9
2009-01-30 08:53:48 51°20.335 2°49.137 333 13.1 325 21
2009-01-30 08:53:53 51°20.35 2°49.12 333.6 13.1 325 21
2009-01-30 08:53:59 51°20.367 2°49.1 333.6 13.1 325 21
2009-01-30 08:54:03 51°20.379 2°49.086 334.1 13.1 325 21
2009-01-30 08:54:08 51°20.394 2°49.07 334.3 13 326 21.1
2009-01-30 08:54:14 51°20.412 2°49.05 334.7 13 325 21.1
2009-01-30 08:54:19 51°20.427 2°49.034 334.7 13 325 20.9
2009-01-30 08:54:23 51°20.439 2°49.021 334.1 13.1 324 21
2009-01-30 08:54:28 51°20.454 2°49.004 334 13 325 21.1
2009-01-30 08:54:34 51°20.471 2°48.984 333.5 13 324 21
2009-01-30 08:54:39 51°20.486 2°48.967 333.6 13 325 21.1
2009-01-30 08:54:43 51°20.498 2°48.954 333.8 13.1 325 21.2
2009-01-30 08:54:48 51°20.513 2°48.937 334 13.1 325 21
2009-01-30 08:54:53 51°20.528 2°48.921 333.7 13 325 21.1
2009-01-30 08:54:59 51°20.545 2°48.901 334.2 13 325 21
2009-01-30 08:55:03 51°20.557 2°48.888 334.3 13.1 324 21.2
2009-01-30 08:55:08 51°20.572 2°48.871 333.9 13.1 325 21.1
2009-01-30 08:55:13 51°20.587 2°48.854 333.6 13.1 324 21.1
2009-01-30 08:55:18 51°20.602 2°48.838 333.7 13 326 21.1
2009-01-30 08:55:23 51°20.616 2°48.82 334 13.1 323 21
2009-01-30 08:55:28 51°20.631 2°48.804 333.1 13 324 21
2009-01-30 08:55:33 51°20.645 2°48.786 332.4 13.1 323 21
2009-01-30 08:55:39 51°20.663 2°48.765 331.8 13.1 323 20.9
2009-01-30 08:55:44 51°20.677 2°48.747 331.2 13 322 20.9
2009-01-30 08:55:48 51°20.688 2°48.733 331.2 13 323 20.9
2009-01-30 08:55:54 51°20.705 2°48.712 330.7 13 321 20.8
2009-01-30 08:55:59 51°20.72 2°48.695 330.3 13 324 20.7
2009-01-30 08:56:03 51°20.731 2°48.681 331.2 13 322 20.5
2009-01-30 08:56:08 51°20.746 2°48.664 331.6 12.9 325 20.5
2009-01-30 08:56:14 51°20.763 2°48.644 332.1 12.9 324 20.3
2009-01-30 08:56:19 51°20.778 2°48.628 332.7 12.9 325 20.2
2009-01-30 08:56:23 51°20.79 2°48.615 332.9 12.9 325 20
2009-01-30 08:56:28 51°20.805 2°48.598 333.1 12.9 325 20
2009-01-30 08:56:34 51°20.822 2°48.579 333.4 12.9 325 19.7
2009-01-30 08:56:39 51°20.837 2°48.562 333.5 12.9 325 19.8
2009-01-30 08:56:43 51°20.849 2°48.549 333.4 12.9 326 19.6
2009-01-30 08:56:48 51°20.863 2°48.533 333.8 12.9 326 19.5
2009-01-30 08:56:53 51°20.878 2°48.517 334.1 12.9 326 19.4
2009-01-30 08:56:59 51°20.896 2°48.498 333.8 12.9 326 19.3
2009-01-30 08:57:03 51°20.907 2°48.484 334 12.9 325 19.2
2009-01-30 08:57:08 51°20.922 2°48.468 333.6 13 325 19.1
2009-01-30 08:57:13 51°20.937 2°48.452 333.4 12.9 325 18.8
2009-01-30 08:57:19 51°20.955 2°48.432 333.4 12.9 326 18.7
2009-01-30 08:57:24 51°20.969 2°48.416 333.8 12.9 325 18.8
2009-01-30 08:57:28 51°20.981 2°48.403 334 12.9 326 18.6
2009-01-30 08:57:33 51°20.996 2°48.386 334.1 12.9 325 18.6
2009-01-30 08:57:39 51°21.014 2°48.368 333.9 12.9 327 18.5
2009-01-30 08:57:43 51°21.025 2°48.354 334.2 13 325 18.6
2009-01-30 08:57:48 51°21.04 2°48.338 334.1 12.9 327 18.6
2009-01-30 08:57:53 51°21.055 2°48.323 334.4 12.9 326 18.6
2009-01-30 08:57:59 51°21.073 2°48.303 334.8 12.9 326 18.6
2009-01-30 08:58:03 51°21.085 2°48.29 334.4 13 326 18.7
2009-01-30 08:58:08 51°21.1 2°48.275 334.5 12.9 327 18.7
2009-01-30 08:58:13 51°21.115 2°48.259 335 12.9 326 18.5
2009-01-30 08:58:19 51°21.132 2°48.239 334.9 12.9 325 18.3
2009-01-30 08:58:23 51°21.144 2°48.227 334.4 12.9 327 18.4
2009-01-30 08:58:28 51°21.159 2°48.21 334.5 13 325 18.5
2009-01-30 08:58:34 51°21.177 2°48.191 334.5 13 326 18.8
2009-01-30 08:58:39 51°21.192 2°48.176 334.3 13 327 19.1
2009-01-30 08:58:43 51°21.204 2°48.163 335.3 13 328 19.4
2009-01-30 08:58:48 51°21.22 2°48.148 336.1 12.9 328 19.7
2009-01-30 08:58:54 51°21.238 2°48.131 336.8 12.9 329 19.8
2009-01-30 08:58:59 51°21.254 2°48.116 337.3 13 329 20.1
2009-01-30 08:59:03 51°21.266 2°48.104 337.9 12.9 330 20.2
2009-01-30 08:59:08 51°21.281 2°48.089 338.1 13 328 20.3
2009-01-30 08:59:14 51°21.3 2°48.072 337.6 13 330 20.5
2009-01-30 08:59:19 51°21.315 2°48.057 337.8 13 328 20.7
2009-01-30 08:59:23 51°21.328 2°48.045 337.6 13 328 20.8
2009-01-30 08:59:28 51°21.343 2°48.029 336.8 13 327 20.9
2009-01-30 08:59:33 51°21.358 2°48.013 335.8 13 327 20.6
2009-01-30 08:59:39 51°21.376 2°47.994 335.4 13 327 20.7
2009-01-30 08:59:43 51°21.388 2°47.981 334.8 13.1 326 20.7
2009-01-30 08:59:48 51°21.403 2°47.965 334.2 13.1 327 20.6
2009-01-30 08:59:53 51°21.418 2°47.948 334.2 13.1 326 20.5
2009-01-30 08:59:59 51°21.437 2°47.93 334.4 13 328 20.9
2009-01-30 09:00:04 51°21.452 2°47.915 335.6 13 327 21.2
2009-01-30 09:00:08 51°21.464 2°47.902 335.6 13 328 21.4
2009-01-30 09:00:14 51°21.482 2°47.883 335.3 13.1 326 21.5
2009-01-30 09:00:19 51°21.497 2°47.867 334.9 13 327 21.4
2009-01-30 09:00:23 51°21.509 2°47.855 334.6 13.1 327 21.3
2009-01-30 09:00:28 51°21.525 2°47.838 334.7 13.1 327 20.9
2009-01-30 09:00:33 51°21.54 2°47.823 334.9 13 328 21.1
2009-01-30 09:00:39 51°21.558 2°47.804 335.6 13 327 21.1
2009-01-30 09:00:43 51°21.57 2°47.791 335.4 13 326 20.9
2009-01-30 09:00:48 51°21.585 2°47.776 334.9 13 327 21.4
2009-01-30 09:00:54 51°21.603 2°47.757 334.8 13 326 21.5
2009-01-30 09:00:59 51°21.619 2°47.741 334.5 13 327 21.9
2009-01-30 09:01:03 51°21.631 2°47.728 334.4 13.1 326 22.3
2009-01-30 09:01:08 51°21.646 2°47.713 334.5 13 327 22.5
2009-01-30 09:01:13 51°21.661 2°47.697 334.5 13 326 22.6
2009-01-30 09:01:19 51°21.679 2°47.678 334.3 13 327 22.7
2009-01-30 09:01:23 51°21.691 2°47.665 334.3 13.1 326 22.7
2009-01-30 09:01:28 51°21.706 2°47.649 334.1 13.1 327 22.7
2009-01-30 09:01:34 51°21.724 2°47.63 334.4 13 326 22.6
2009-01-30 09:01:39 51°21.74 2°47.614 334.5 13 327 22.6
2009-01-30 09:01:43 51°21.752 2°47.601 334.5 13 327 22.6
2009-01-30 09:01:48 51°21.767 2°47.585 334.7 13 327 22.6
2009-01-30 09:01:53 51°21.782 2°47.57 334.6 13 327 22.6
2009-01-30 09:01:58 51°21.798 2°47.555 335.3 13 329 22.4
2009-01-30 09:02:03 51°21.813 2°47.539 336.3 13 327 22.1
2009-01-30 09:02:08 51°21.828 2°47.524 335.6 12.9 328 22.1
2009-01-30 09:02:13 51°21.843 2°47.508 335.5 12.9 326 22.1
2009-01-30 09:02:18 51°21.858 2°47.494 334.9 12.9 328 22.2
2009-01-30 09:02:24 51°21.877 2°47.475 335.1 13 327 22.3
2009-01-30 09:02:28 51°21.889 2°47.463 334.9 12.9 328 22.3
2009-01-30 09:02:34 51°21.907 2°47.444 334.8 13 327 22.5
2009-01-30 09:02:39 51°21.922 2°47.429 334.8 12.9 328 22.5
2009-01-30 09:02:43 51°21.934 2°47.416 334.5 13 326 22.6
2009-01-30 09:02:48 51°21.949 2°47.401 334.4 12.9 328 22.6
2009-01-30 09:02:54 51°21.967 2°47.382 334.7 12.9 327 22.7
2009-01-30 09:02:59 51°21.982 2°47.367 334.7 12.9 327 22.6
2009-01-30 09:03:03 51°21.994 2°47.354 334.5 13 327 22.7
2009-01-30 09:03:08 51°22.01 2°47.339 334.3 12.9 328 22.6
2009-01-30 09:03:14 51°22.028 2°47.32 334.7 13 326 22.5
2009-01-30 09:03:19 51°22.043 2°47.304 334.3 12.9 327 22.6
2009-01-30 09:03:23 51°22.055 2°47.291 334.1 12.9 326 22.5
2009-01-30 09:03:28 51°22.07 2°47.276 334.1 12.9 327 22.2
2009-01-30 09:03:34 51°22.088 2°47.257 334.8 12.9 327 22
2009-01-30 09:03:39 51°22.103 2°47.243 334.9 12.8 328 21.8
2009-01-30 09:03:43 51°22.115 2°47.23 335.4 12.9 326 21.6
2009-01-30 09:03:48 51°22.129 2°47.215 335.1 12.8 328 21.3
2009-01-30 09:03:53 51°22.144 2°47.199 334.9 12.8 326 21.3
2009-01-30 09:03:59 51°22.162 2°47.181 334.7 12.8 327 20.9
2009-01-30 09:04:03 51°22.174 2°47.169 334.5 12.8 328 20.7
2009-01-30 09:04:08 51°22.189 2°47.154 335.6 12.8 328 20.5
2009-01-30 09:04:13 51°22.204 2°47.139 336.3 12.8 329 20.1
2009-01-30 09:04:19 51°22.223 2°47.122 337 12.8 329 19.5
2009-01-30 09:04:23 51°22.235 2°47.111 337.2 12.7 330 18.2
2009-01-30 09:04:28 51°22.25 2°47.096 337.6 12.7 328 17.2
2009-01-30 09:04:33 51°22.265 2°47.081 337.3 12.7 328 17.4
2009-01-30 09:04:39 51°22.283 2°47.063 336.8 12.7 328 17.4
2009-01-30 09:04:44 51°22.298 2°47.048 336.3 12.7 329 16.5
2009-01-30 09:04:48 51°22.309 2°47.036 336.1 12.7 327 16.6
2009-01-30 09:04:53 51°22.324 2°47.022 335.8 12.6 329 17.4
2009-01-30 09:04:59 51°22.342 2°47.003 335.5 12.7 326 17.7
2009-01-30 09:05:03 51°22.354 2°46.991 334.7 12.6 327 17.9
2009-01-30 09:05:08 51°22.368 2°46.975 334 12.7 325 18
2009-01-30 09:05:14 51°22.386 2°46.956 333.2 12.6 326 17.8
2009-01-30 09:05:19 51°22.4 2°46.939 332.9 12.7 324 17.7
2009-01-30 09:05:23 51°22.411 2°46.927 332.7 12.7 325 17.6
2009-01-30 09:05:29 51°22.428 2°46.907 332.3 12.8 324 17.7
2009-01-30 09:05:34 51°22.443 2°46.89 331.6 12.7 324 18
2009-01-30 09:05:39 51°22.457 2°46.874 331.6 12.7 325 18.1
2009-01-30 09:05:43 51°22.468 2°46.86 332 12.7 323 17.9
2009-01-30 09:05:48 51°22.483 2°46.844 331.2 12.7 323 18.3
2009-01-30 09:05:53 51°22.497 2°46.828 330.5 12.7 325 18.4
2009-01-30 09:05:59 51°22.514 2°46.808 331.6 12.7 325 18.6
2009-01-30 09:06:03 51°22.526 2°46.795 332 12.7 325 18.6
2009-01-30 09:06:08 51°22.54 2°46.779 332.3 12.7 325 18.8
2009-01-30 09:06:13 51°22.555 2°46.763 332.6 12.7 325 18.9
2009-01-30 09:06:19 51°22.572 2°46.744 332.1 12.7 325 18.8
2009-01-30 09:06:23 51°22.584 2°46.731 332.3 12.7 325 19
2009-01-30 09:06:28 51°22.598 2°46.714 332.4 12.7 324 19.1
2009-01-30 09:06:33 51°22.612 2°46.697 331.5 12.7 323 19.1
2009-01-30 09:06:39 51°22.629 2°46.677 330.5 12.7 323 18.6
2009-01-30 09:06:44 51°22.643 2°46.659 330 12.7 322 18
2009-01-30 09:06:48 51°22.654 2°46.645 329.6 12.7 321 17.1
2009-01-30 09:06:54 51°22.67 2°46.623 329.2 12.7 320 15.3
2009-01-30 09:06:59 51°22.683 2°46.605 328.4 12.7 320 13.7
2009-01-30 09:07:03 51°22.694 2°46.591 328.3 12.7 321 14.9
2009-01-30 09:07:08 51°22.708 2°46.574 329 12.7 323 16
2009-01-30 09:07:13 51°22.722 2°46.557 329.9 12.8 322 16.9
2009-01-30 09:07:19 51°22.739 2°46.537 330.3 12.7 324 17.6
2009-01-30 09:07:23 51°22.751 2°46.523 331 12.7 324 18.2
2009-01-30 09:07:28 51°22.765 2°46.507 331.7 12.7 323 18.9
2009-01-30 09:07:34 51°22.782 2°46.486 331.2 12.8 323 19.6
2009-01-30 09:07:39 51°22.796 2°46.469 330.7 12.7 323 19.9
2009-01-30 09:07:43 51°22.807 2°46.456 330.8 12.7 324 20.2
2009-01-30 09:07:48 51°22.821 2°46.438 331 12.7 321 20.1
2009-01-30 09:07:54 51°22.838 2°46.418 329.8 12.6 324 19.4
2009-01-30 09:07:59 51°22.851 2°46.4 329.8 12.6 321 20
2009-01-30 09:08:03 51°22.862 2°46.387 329 12.6 322 21.3
2009-01-30 09:08:08 51°22.876 2°46.369 328.7 12.6 321 22.2
2009-01-30 09:08:13 51°22.89 2°46.352 328.8 12.6 322 22.4
2009-01-30 09:08:19 51°22.906 2°46.331 329.1 12.6 322 22.8
2009-01-30 09:08:23 51°22.917 2°46.318 329.8 12.6 324 23.1
2009-01-30 09:08:28 51°22.931 2°46.302 330.5 12.6 324 23.2
2009-01-30 09:08:33 51°22.946 2°46.286 331.1 12.6 324 23.5
2009-01-30 09:08:39 51°22.963 2°46.266 331.8 12.6 324 23.4
2009-01-30 09:08:43 51°22.974 2°46.253 332 12.6 324 23.4
2009-01-30 09:08:48 51°22.988 2°46.236 332 12.6 323 23.2
2009-01-30 09:08:53 51°23.002 2°46.219 331 12.6 323 23.4
2009-01-30 09:08:59 51°23.018 2°46.199 330.1 12.6 322 23.4
2009-01-30 09:09:04 51°23.032 2°46.181 329.8 12.7 322 23.5
2009-01-30 09:09:08 51°23.043 2°46.167 329.2 12.7 321 23.3
2009-01-30 09:09:13 51°23.057 2°46.15 328.8 12.6 323 23.6
2009-01-30 09:09:19 51°23.074 2°46.13 329.5 12.7 323 23.8
2009-01-30 09:09:23 51°23.085 2°46.116 330.3 12.7 324 23.9
2009-01-30 09:09:28 51°23.1 2°46.1 331.2 12.7 324 23.8
2009-01-30 09:09:34 51°23.117 2°46.08 331.5 12.7 324 23.8
2009-01-30 09:09:39 51°23.131 2°46.064 331.7 12.7 324 24.1
2009-01-30 09:09:43 51°23.143 2°46.051 331.9 12.7 325 23.9
2009-01-30 09:09:48 51°23.156 2°46.033 331.7 12.8 322 23.5
2009-01-30 09:09:54 51°23.174 2°46.014 330.5 12.6 326 22.9
2009-01-30 09:09:59 51°23.188 2°45.997 331.6 12.7 323 23
2009-01-30 09:10:03 51°23.199 2°45.985 332 12.6 326 23.6
2009-01-30 09:10:08 51°23.214 2°45.968 332.5 12.7 324 23.2
2009-01-30 09:10:14 51°23.231 2°45.949 332.7 12.5 325 22.8
2009-01-30 09:10:19 51°23.245 2°45.933 332.7 12.6 325 22.4
2009-01-30 09:10:23 51°23.257 2°45.921 333.2 12.5 326 23.4
2009-01-30 09:10:28 51°23.271 2°45.905 333.7 12.5 326 24.4
2009-01-30 09:10:33 51°23.286 2°45.89 333.7 12.4 327 24.9
2009-01-30 09:10:39 51°23.303 2°45.872 334.4 12.5 326 25.3
2009-01-30 09:10:43 51°23.314 2°45.86 334.4 12.5 326 25.2
2009-01-30 09:10:48 51°23.329 2°45.844 334.1 12.5 326 25.8
2009-01-30 09:10:52 51°23.34 2°45.831 333.8 12.5 326 25.6
2009-01-30 09:10:59 51°23.36 2°45.81 333.6 12.6 326 25.3
2009-01-30 09:11:03 51°23.372 2°45.797 333.6 12.5 326 23.9
2009-01-30 09:11:08 51°23.386 2°45.781 333.4 12.5 325 24.7
2009-01-30 09:11:13 51°23.4 2°45.765 332.9 12.5 325 25.2
2009-01-30 09:11:19 51°23.417 2°45.746 332.5 12.5 324 25.3
2009-01-30 09:11:23 51°23.428 2°45.733 331.8 12.5 324 25.5
2009-01-30 09:11:28 51°23.442 2°45.716 331.4 12.6 323 25.5
2009-01-30 09:11:33 51°23.456 2°45.699 330.7 12.6 322 25.5
2009-01-30 09:11:39 51°23.473 2°45.679 329.8 12.6 324 25.3
2009-01-30 09:11:43 51°23.484 2°45.665 330.4 12.6 322 25.4
2009-01-30 09:11:48 51°23.498 2°45.65 330.3 12.5 324 25.7
2009-01-30 09:11:54 51°23.515 2°45.629 330.5 12.5 323 25.7
2009-01-30 09:11:59 51°23.529 2°45.613 330.8 12.5 324 25.6
2009-01-30 09:12:03 51°23.54 2°45.6 330.9 12.5 324 25.6
2009-01-30 09:12:08 51°23.554 2°45.583 330.7 12.6 324 25.8
2009-01-30 09:12:14 51°23.571 2°45.564 331 12.5 325 25.5
2009-01-30 09:12:19 51°23.585 2°45.548 332 12.6 324 25.6
2009-01-30 09:12:23 51°23.597 2°45.536 331.9 12.5 326 25.7
2009-01-30 09:12:28 51°23.611 2°45.519 331.9 12.6 324 25.8
2009-01-30 09:12:34 51°23.628 2°45.5 331.4 12.5 325 26.1
2009-01-30 09:12:39 51°23.642 2°45.483 331.4 12.6 323 26.1
2009-01-30 09:12:43 51°23.653 2°45.47 330.9 12.5 324 26.1
2009-01-30 09:12:48 51°23.667 2°45.454 330.9 12.5 325 26.2
2009-01-30 09:12:53 51°23.682 2°45.438 332 12.5 325 26
2009-01-30 09:12:59 51°23.699 2°45.42 332 12.5 326 25.9
2009-01-30 09:13:03 51°23.711 2°45.408 332.9 12.5 327 25.7
2009-01-30 09:13:08 51°23.725 2°45.391 333.8 12.6 324 26.2
2009-01-30 09:13:13 51°23.739 2°45.376 332.8 12.5 326 25.7
2009-01-30 09:13:19 51°23.756 2°45.356 332.5 12.6 323 25.9
2009-01-30 09:13:24 51°23.77 2°45.34 331.5 12.5 324 25.8
2009-01-30 09:13:28 51°23.781 2°45.327 331.7 12.5 324 25.5
2009-01-30 09:13:33 51°23.796 2°45.311 331.5 12.6 324 25.7
2009-01-30 09:13:39 51°23.813 2°45.291 331.2 12.6 325 25.3
2009-01-30 09:13:43 51°23.824 2°45.278 331.1 12.6 325 25.6
2009-01-30 09:13:48 51°23.839 2°45.264 332.3 12.5 327 25.2
2009-01-30 09:13:53 51°23.853 2°45.248 333.5 12.5 325 25.2
2009-01-30 09:13:59 51°23.871 2°45.23 333.6 12.5 328 25.3
2009-01-30 09:14:03 51°23.882 2°45.217 334 12.5 326 25.4
2009-01-30 09:14:08 51°23.897 2°45.203 334 12.4 328 25.8
2009-01-30 09:14:14 51°23.914 2°45.184 334 12.5 327 25.7
2009-01-30 09:14:19 51°23.929 2°45.169 334.2 12.5 327 25.3
2009-01-30 09:14:23 51°23.94 2°45.157 333.9 12.5 327 25.5
2009-01-30 09:14:28 51°23.955 2°45.142 333.9 12.5 327 25.2
2009-01-30 09:14:34 51°23.972 2°45.124 334.1 12.5 327 25.4
2009-01-30 09:14:39 51°23.987 2°45.109 334.4 12.5 327 25.7
2009-01-30 09:14:43 51°23.998 2°45.097 334.4 12.4 327 25.3
2009-01-30 09:14:48 51°24.012 2°45.082 334.5 12.4 327 24.8
2009-01-30 09:14:54 51°24.03 2°45.063 334.7 12.4 327 25
2009-01-30 09:14:59 51°24.044 2°45.048 334.5 12.5 327 24.7
2009-01-30 09:15:03 51°24.056 2°45.036 334.4 12.4 327 24.2
2009-01-30 09:15:08 51°24.07 2°45.021 334.9 12.4 327 23
2009-01-30 09:15:12 51°24.082 2°45.009 334.7 12.4 326 24.5
2009-01-30 09:15:19 51°24.102 2°44.987 334.7 12.4 327 24.8
2009-01-30 09:15:23 51°24.113 2°44.975 334.7 12.4 326 25.1
2009-01-30 09:15:28 51°24.127 2°44.96 334.6 12.3 326 24.7
2009-01-30 09:15:32 51°24.139 2°44.948 334.1 12.4 326 24
2009-01-30 09:15:39 51°24.159 2°44.926 334.3 12.4 326 24.8
2009-01-30 09:15:43 51°24.17 2°44.914 334.5 12.3 328 24.7
2009-01-30 09:15:48 51°24.185 2°44.9 335.5 12.3 327 25
2009-01-30 09:15:52 51°24.196 2°44.888 335.8 12.3 328 24.7
2009-01-30 09:15:59 51°24.216 2°44.867 336.2 12.3 327 24.8
2009-01-30 09:16:04 51°24.231 2°44.852 335.8 12.3 327 24.7
2009-01-30 09:16:08 51°24.242 2°44.841 335.8 12.2 330 24.8
2009-01-30 09:16:14 51°24.259 2°44.824 337.1 12.3 327 24.8
2009-01-30 09:16:19 51°24.274 2°44.81 337 12.3 329 24.5
2009-01-30 09:16:23 51°24.286 2°44.798 337.3 12.3 328 24.8
2009-01-30 09:16:28 51°24.3 2°44.785 337.7 12.2 329 24.7
2009-01-30 09:16:32 51°24.312 2°44.773 338 12.2 329 25
2009-01-30 09:16:39 51°24.332 2°44.754 337.8 12.2 329 24.2
2009-01-30 09:16:43 51°24.344 2°44.742 337.7 12.2 329 24.7
2009-01-30 09:16:48 51°24.358 2°44.729 337.4 12.2 330 24.3
2009-01-30 09:16:54 51°24.376 2°44.711 337.5 12.3 327 23.9
2009-01-30 09:16:59 51°24.39 2°44.696 336.3 12.2 327 23.6
2009-01-30 09:17:03 51°24.401 2°44.684 335.6 12.2 327 23.8
2009-01-30 09:17:08 51°24.415 2°44.669 335.6 12.2 326 23.9
2009-01-30 09:17:14 51°24.432 2°44.651 334.9 12.2 327 23.8
2009-01-30 09:17:19 51°24.446 2°44.635 335.2 12.2 325 23.8
2009-01-30 09:17:23 51°24.457 2°44.624 334.4 12.2 327 24.4
2009-01-30 09:17:28 51°24.471 2°44.608 334.1 12.3 325 23.7
2009-01-30 09:17:32 51°24.482 2°44.596 334 12.3 326 24.1
2009-01-30 09:17:39 51°24.502 2°44.574 334 12.3 325 24.6
2009-01-30 09:17:43 51°24.513 2°44.562 334.1 12.3 327 24.4
2009-01-30 09:17:48 51°24.528 2°44.547 334.5 12.4 326 24.8
2009-01-30 09:17:52 51°24.539 2°44.535 334.5 12.3 327 24.3
2009-01-30 09:17:59 51°24.559 2°44.513 334.7 12.3 326 24.3
2009-01-30 09:18:03 51°24.57 2°44.501 334.6 12.3 327 23.9
2009-01-30 09:18:08 51°24.584 2°44.486 334.6 12.3 326 24.4
2009-01-30 09:18:12 51°24.596 2°44.474 334.6 12.3 326 24.5
2009-01-30 09:18:19 51°24.615 2°44.452 334.7 12.3 326 24.2
2009-01-30 09:18:24 51°24.63 2°44.437 334.8 12.3 326 23.4
2009-01-30 09:18:28 51°24.641 2°44.424 334.2 12.4 325 22.5
2009-01-30 09:18:34 51°24.658 2°44.406 334.1 12.3 327 23.1
2009-01-30 09:18:39 51°24.672 2°44.392 334.9 12.3 327 24
2009-01-30 09:18:43 51°24.684 2°44.381 335.6 12.3 329 24.6
2009-01-30 09:18:48 51°24.699 2°44.366 336.5 12.3 328 25.2
2009-01-30 09:18:54 51°24.716 2°44.35 337 12.3 330 25.2
2009-01-30 09:18:59 51°24.731 2°44.335 337.5 12.3 329 25
2009-01-30 09:19:03 51°24.742 2°44.324 337.7 12.3 329 25
2009-01-30 09:19:08 51°24.757 2°44.31 337.8 12.3 329 25
2009-01-30 09:19:14 51°24.775 2°44.293 337.5 12.4 328 25.2
2009-01-30 09:19:19 51°24.79 2°44.279 337 12.4 329 24.3
2009-01-30 09:19:23 51°24.801 2°44.267 337 12.4 328 21
2009-01-30 09:19:28 51°24.816 2°44.253 337 12.4 328 21.2
2009-01-30 09:19:32 51°24.828 2°44.241 336.8 12.4 328 20.1
2009-01-30 09:19:39 51°24.848 2°44.221 336.5 12.4 328 19.7
2009-01-30 09:19:43 51°24.859 2°44.209 336.5 12.3 329 19.3
2009-01-30 09:19:48 51°24.874 2°44.194 337 12.3 327 20
2009-01-30 09:19:54 51°24.891 2°44.176 336.4 12.3 326 19.6
2009-01-30 09:19:59 51°24.905 2°44.161 335.4 12.3 327 20.1
2009-01-30 09:20:04 51°24.919 2°44.145 335 12.4 325 20.8
2009-01-30 09:20:08 51°24.931 2°44.133 334.3 12.3 326 21.1
2009-01-30 09:20:12 51°24.942 2°44.121 334.5 12.3 326 20.4
2009-01-30 09:20:19 51°24.962 2°44.1 334.9 12.3 327 19.8
2009-01-30 09:20:23 51°24.973 2°44.089 335.6 12.3 328 19.1
2009-01-30 09:20:28 51°24.988 2°44.074 336.2 12.4 327 19.5
2009-01-30 09:20:32 51°25 2°44.063 336.2 12.3 329 19.9
2009-01-30 09:20:39 51°25.02 2°44.043 336.5 12.3 328 19.4
2009-01-30 09:20:44 51°25.034 2°44.028 337 12.3 328 19.9
2009-01-30 09:20:48 51°25.046 2°44.017 337 12.2 328 20.3
2009-01-30 09:20:53 51°25.061 2°44.003 337 12.2 329 20.3
2009-01-30 09:20:59 51°25.078 2°43.986 336.9 12.2 328 20.4
2009-01-30 09:21:03 51°25.089 2°43.974 336.8 12.3 328 20.9
2009-01-30 09:21:08 51°25.104 2°43.96 336.5 12.2 329 21.1
2009-01-30 09:21:14 51°25.121 2°43.943 336.6 12.3 328 21.1
2009-01-30 09:21:19 51°25.136 2°43.928 336.7 12.2 328 21.1
2009-01-30 09:21:23 51°25.147 2°43.917 336.7 12.2 328 21.1
2009-01-30 09:21:28 51°25.161 2°43.902 336.3 12.2 326 21.4
2009-01-30 09:21:34 51°25.179 2°43.884 335 12.2 327 21.4
2009-01-30 09:21:39 51°25.192 2°43.869 334.8 12.3 325 21.2
2009-01-30 09:21:43 51°25.204 2°43.856 333.9 12.3 325 21
2009-01-30 09:21:48 51°25.218 2°43.841 333.5 12.3 325 21.3
2009-01-30 09:21:54 51°25.234 2°43.822 333.2 12.2 324 21.2
2009-01-30 09:21:59 51°25.248 2°43.806 332.7 12.3 325 21.2
2009-01-30 09:22:03 51°25.259 2°43.793 332.8 12.2 324 21.2
2009-01-30 09:22:08 51°25.273 2°43.778 333 12.2 326 21.3
2009-01-30 09:22:12 51°25.284 2°43.766 333.6 12.2 324 20.7
2009-01-30 09:22:19 51°25.304 2°43.744 333.2 12.2 326 20.7
2009-01-30 09:22:23 51°25.315 2°43.732 333.5 12.1 326 20.7
2009-01-30 09:22:28 51°25.329 2°43.717 334.1 12.2 326 20.7
2009-01-30 09:22:32 51°25.34 2°43.705 334.2 12.2 326 21
2009-01-30 09:22:39 51°25.359 2°43.683 334.2 12.2 325 20.6
2009-01-30 09:22:44 51°25.374 2°43.668 333.8 12.2 326 21
2009-01-30 09:22:48 51°25.385 2°43.656 333.9 12.2 327 21.3
2009-01-30 09:22:54 51°25.402 2°43.639 334.9 12.2 327 20.9
2009-01-30 09:22:59 51°25.416 2°43.624 335 12.1 328 20.9
2009-01-30 09:23:04 51°25.43 2°43.61 335.7 12.2 326 20.7
2009-01-30 09:23:08 51°25.442 2°43.599 336.1 12.1 330 21
2009-01-30 09:23:12 51°25.453 2°43.587 336.8 12.2 327 20.6
2009-01-30 09:23:19 51°25.473 2°43.567 336.6 12.2 327 21
2009-01-30 09:23:23 51°25.485 2°43.555 335.9 12.2 327 21
2009-01-30 09:23:28 51°25.499 2°43.54 335.4 12.2 326 21.1
2009-01-30 09:23:34 51°25.515 2°43.521 335 12.3 326 21
2009-01-30 09:23:39 51°25.53 2°43.506 334.8 12.2 326 20.9
2009-01-30 09:23:43 51°25.541 2°43.494 334.7 12.2 325 21.2
2009-01-30 09:23:48 51°25.554 2°43.478 334.5 12.2 325 21
2009-01-30 09:23:54 51°25.571 2°43.459 333.6 12.3 324 20.9
2009-01-30 09:23:59 51°25.585 2°43.445 333.8 12.2 327 20.6
2009-01-30 09:24:03 51°25.597 2°43.432 334.9 12.2 326 20.1
2009-01-30 09:24:08 51°25.611 2°43.417 335.2 12.2 326 19.8
2009-01-30 09:24:12 51°25.622 2°43.406 334.8 12.3 327 20.1
2009-01-30 09:24:19 51°25.642 2°43.385 335.6 12.2 327 21
2009-01-30 09:24:23 51°25.653 2°43.373 336.2 12.2 328 22.7
2009-01-30 09:24:28 51°25.668 2°43.359 336.9 12.3 328 23.1
2009-01-30 09:24:32 51°25.68 2°43.347 336.8 12.2 328 23.5
2009-01-30 09:24:39 51°25.7 2°43.328 337 12.2 329 23.6
2009-01-30 09:24:43 51°25.711 2°43.315 336.7 12.3 326 23.8
2009-01-30 09:24:48 51°25.725 2°43.301 336.1 12.2 328 23.4
2009-01-30 09:24:53 51°25.74 2°43.286 335.8 12.2 326 23.8
2009-01-30 09:24:59 51°25.757 2°43.269 335.6 12.2 329 24.4
2009-01-30 09:25:04 51°25.771 2°43.254 336.1 12.2 327 24.4
2009-01-30 09:25:08 51°25.783 2°43.243 336.2 12.2 329 24.6
2009-01-30 09:25:14 51°25.8 2°43.226 336.3 12.2 328 25
2009-01-30 09:25:19 51°25.814 2°43.212 337 12.2 328 24.9
2009-01-30 09:25:24 51°25.829 2°43.198 337.1 12.2 329 25.2
2009-01-30 09:25:28 51°25.84 2°43.186 337 12.2 327 25.3
2009-01-30 09:25:34 51°25.857 2°43.169 336.5 12.2 328 25.5
2009-01-30 09:25:39 51°25.872 2°43.154 335.8 12.2 327 25
2009-01-30 09:25:43 51°25.883 2°43.142 335.9 12.3 327 24.3
2009-01-30 09:25:48 51°25.897 2°43.127 335.4 12.3 326 22.5
2009-01-30 09:25:54 51°25.914 2°43.108 334.9 12.3 325 21.9
2009-01-30 09:25:59 51°25.928 2°43.093 334.2 12.2 326 21.1
2009-01-30 09:26:03 51°25.939 2°43.08 334.1 12.3 324 22.2
2009-01-30 09:26:08 51°25.953 2°43.065 333.4 12.2 326 23.1
2009-01-30 09:26:14 51°25.97 2°43.047 333.6 12.3 326 22.7
2009-01-30 09:26:19 51°25.983 2°43.031 333.9 12.3 324 22.8
2009-01-30 09:26:23 51°25.995 2°43.019 333.4 12.2 326 22.1
2009-01-30 09:26:28 51°26.008 2°43.002 333.8 12.3 324 20.5
2009-01-30 09:26:32 51°26.02 2°42.99 333.4 12.2 326 22.4
2009-01-30 09:26:39 51°26.039 2°42.968 333.6 12.3 325 23.1
2009-01-30 09:26:44 51°26.054 2°42.955 334.1 12.2 328 23.9
2009-01-30 09:26:48 51°26.065 2°42.942 335.3 12.2 326 24.3
2009-01-30 09:26:53 51°26.079 2°42.928 335.5 12.2 328 24.1
2009-01-30 09:26:59 51°26.097 2°42.911 335.9 12.2 327 24.8
2009-01-30 09:27:03 51°26.108 2°42.9 335.9 12.2 329 25.3
2009-01-30 09:27:08 51°26.122 2°42.885 336.5 12.2 328 25.6
2009-01-30 09:27:12 51°26.134 2°42.874 336.4 12.2 329 25.2
2009-01-30 09:27:18 51°26.151 2°42.858 336.8 12.2 329 25.5
2009-01-30 09:27:23 51°26.166 2°42.844 336.9 12.2 329 25.7
2009-01-30 09:27:27 51°26.178 2°42.832 337 12.2 329 25.6
2009-01-30 09:27:32 51°26.192 2°42.818 336.7 12.2 329 25.9
2009-01-30 09:27:38 51°26.209 2°42.801 336.9 12.2 329 26
2009-01-30 09:27:43 51°26.224 2°42.787 336.9 12.2 327 26
2009-01-30 09:27:48 51°26.238 2°42.773 335.7 12.2 330 25.7
2009-01-30 09:27:53 51°26.253 2°42.759 336 12.2 328 25.4
2009-01-30 09:27:58 51°26.267 2°42.745 336.5 12.2 329 24.7
2009-01-30 09:28:02 51°26.278 2°42.733 336.4 12.2 327 24.3
2009-01-30 09:28:07 51°26.293 2°42.719 335.8 12.2 330 22.7
2009-01-30 09:28:14 51°26.313 2°42.698 336.6 12.3 327 22.7
2009-01-30 09:28:19 51°26.327 2°42.684 336.3 12.3 328 23.9
2009-01-30 09:28:22 51°26.336 2°42.676 335.7 12.2 329 24.1
2009-01-30 09:28:27 51°26.35 2°42.661 336.4 12.2 328 25.1
2009-01-30 09:28:33 51°26.368 2°42.645 336.3 12.2 329 25.7
2009-01-30 09:28:39 51°26.385 2°42.627 336.7 12.2 328 25.9
2009-01-30 09:28:43 51°26.397 2°42.616 336.7 12.2 329 26.2
2009-01-30 09:28:47 51°26.408 2°42.605 336.7 12.2 329 26.1
2009-01-30 09:28:52 51°26.423 2°42.59 337 12.2 327 26.2
2009-01-30 09:28:58 51°26.439 2°42.573 335.7 12.2 327 25.7
2009-01-30 09:29:02 51°26.451 2°42.56 334.9 12.2 325 24.8
2009-01-30 09:29:07 51°26.464 2°42.545 334.3 12.1 326 24
2009-01-30 09:29:12 51°26.478 2°42.53 334 12.1 326 24
2009-01-30 09:29:18 51°26.495 2°42.512 334.3 12.2 327 25
2009-01-30 09:29:23 51°26.51 2°42.498 335.1 12.2 328 25.4
2009-01-30 09:29:27 51°26.521 2°42.486 335.7 12.2 327 25.7
2009-01-30 09:29:34 51°26.541 2°42.465 335.6 12.2 326 26.6
2009-01-30 09:29:38 51°26.552 2°42.453 334.8 12.2 326 27.1
2009-01-30 09:29:42 51°26.563 2°42.441 334.5 12.2 327 27.9
2009-01-30 09:29:47 51°26.577 2°42.426 334.5 12.2 326 28.3
2009-01-30 09:29:52 51°26.591 2°42.411 334.3 12.2 326 28.8
2009-01-30 09:29:58 51°26.609 2°42.394 334.4 12.1 329 29.4
2009-01-30 09:30:02 51°26.62 2°42.383 335.6 12.2 328 29.5
2009-01-30 09:30:08 51°26.637 2°42.366 336.3 12.1 329 29.5
2009-01-30 09:30:14 51°26.655 2°42.349 337 12.2 329 29.4
2009-01-30 09:30:19 51°26.669 2°42.336 337.2 12.1 330 29.7
2009-01-30 09:30:23 51°26.681 2°42.324 337.4 12.1 328 29.5
2009-01-30 09:30:28 51°26.695 2°42.31 337 12.1 329 29.5
2009-01-30 09:30:34 51°26.713 2°42.294 336.7 12.1 329 29.6
2009-01-30 09:30:38 51°26.724 2°42.283 337 12.1 329 29.5
2009-01-30 09:30:42 51°26.736 2°42.272 337.2 12.2 329 29.7
2009-01-30 09:30:47 51°26.75 2°42.258 337.2 12.2 329 29.4
2009-01-30 09:30:54 51°26.771 2°42.239 337 12.1 330 29.3
2009-01-30 09:30:59 51°26.785 2°42.225 337.8 12.1 328 29.4
2009-01-30 09:31:02 51°26.794 2°42.217 337.4 12.1 330 29.2
2009-01-30 09:31:08 51°26.811 2°42.199 337.2 12.2 328 29.3
2009-01-30 09:31:14 51°26.828 2°42.183 336.8 12.2 329 29.2
2009-01-30 09:31:19 51°26.843 2°42.168 336.7 12.2 328 29.3
2009-01-30 09:31:23 51°26.854 2°42.157 336.5 12.1 329 29.2
2009-01-30 09:31:27 51°26.866 2°42.146 336.9 12.1 328 29.3
2009-01-30 09:31:32 51°26.88 2°42.133 336.9 12.1 331 29.1
2009-01-30 09:31:38 51°26.898 2°42.117 338.1 12.1 330 29.2
2009-01-30 09:31:43 51°26.913 2°42.104 338.4 12.1 331 29.1